Time;durP1;ratioP1;P1;durP2;ratioP2;P2;SDS_P1;SDS_P2;PMS_P1;PMS_P2;Temp;Humidity;BMP_temperature;BMP_pressure;BME280_temperature;BME280_humidity;BME280_pressure;Samples;Min_cycle;Max_cycle;Signal;HPM_P1;HPM_P2
2022/07/27 00:01:16;;;;;;;34.80;23.10;;;;;;;17.09;66.79;98704.70;105897;1274;112170;-63
2022/07/27 00:03:45;;;;;;;35.00;23.10;;;;;;;17.09;66.82;98701.77;106278;1274;98014;-64
2022/07/27 00:06:13;;;;;;;35.20;23.90;;;;;;;17.08;66.89;98708.54;106374;1274;107613;-63
2022/07/27 00:08:40;;;;;;;41.30;24.10;;;;;;;17.07;66.97;98707.05;106029;1274;97948;-63
2022/07/27 00:11:09;;;;;;;35.40;24.30;;;;;;;17.07;66.94;98704.05;106076;1274;97860;-64
2022/07/27 00:13:37;;;;;;;36.70;24.30;;;;;;;17.05;66.94;98702.83;106110;1274;111776;-63
2022/07/27 00:16:05;;;;;;;37.50;24.90;;;;;;;17.01;67.06;98700.58;106062;1274;97888;-64
2022/07/27 00:18:33;;;;;;;32.50;21.00;;;;;;;17.01;67.14;98700.58;106171;1274;107950;-64
2022/07/27 00:21:02;;;;;;;33.90;22.20;;;;;;;16.99;67.00;98699.63;106164;1274;97717;-63
2022/07/27 00:23:30;;;;;;;40.70;24.70;;;;;;;16.96;67.16;98701.01;106104;1274;97850;-66
2022/07/27 00:25:58;;;;;;;38.70;25.20;;;;;;;16.95;67.20;98704.55;105994;1274;111801;-63
2022/07/27 00:28:26;;;;;;;37.60;25.00;;;;;;;16.94;67.32;98707.66;106219;1274;97886;-64
2022/07/27 00:30:54;;;;;;;42.10;25.80;;;;;;;16.94;67.14;98706.75;106211;1274;109296;-61
2022/07/27 00:33:22;;;;;;;41.50;24.60;;;;;;;16.94;67.32;98708.72;106036;1274;95345;-64
2022/07/27 00:35:50;;;;;;;41.20;26.00;;;;;;;16.93;67.47;98707.52;106062;1274;95280;-64
2022/07/27 00:38:18;;;;;;;41.30;26.30;;;;;;;16.91;67.26;98708.29;106161;1274;112157;-66
2022/07/27 00:40:46;;;;;;;37.90;25.20;;;;;;;16.91;67.40;98708.64;106145;1274;98002;-64
2022/07/27 00:43:15;;;;;;;38.70;24.00;;;;;;;16.90;67.51;98707.15;106117;1274;108416;-66
2022/07/27 00:45:44;;;;;;;38.20;24.00;;;;;;;16.89;67.56;98711.80;106128;1274;95346;-69
2022/07/27 00:48:12;;;;;;;39.90;25.10;;;;;;;16.87;67.45;98708.95;106164;1274;97848;-67
2022/07/27 00:50:42;;;;;;;40.10;23.80;;;;;;;16.86;67.40;98704.08;106122;1274;112152;-64
2022/07/27 00:53:13;;;;;;;39.30;23.40;;;;;;;16.83;67.68;98711.11;106064;1274;97841;-63
2022/07/27 00:55:41;;;;;;;38.10;24.50;;;;;;;16.81;67.54;98707.75;106044;1273;107621;-64
2022/07/27 00:58:09;;;;;;;34.60;22.40;;;;;;;16.78;67.64;98708.23;106102;1274;97934;-63
2022/07/27 01:00:39;;;;;;;33.00;22.10;;;;;;;16.78;67.60;98707.02;106157;1274;97889;-63
2022/07/27 01:03:06;;;;;;;36.70;22.80;;;;;;;16.77;67.66;98708.05;106196;1272;111315;-63
2022/07/27 01:05:37;;;;;;;33.80;21.80;;;;;;;16.76;67.53;98709.52;106134;1274;96371;-64
2022/07/27 01:08:13;;;;;;;33.80;20.50;;;;;;;16.71;67.57;98706.82;106130;1274;107766;-63
2022/07/27 01:10:42;;;;;;;32.70;20.40;;;;;;;16.70;67.77;98707.90;106168;1274;97827;-64
2022/07/27 01:13:16;;;;;;;30.70;20.60;;;;;;;16.70;67.80;98706.08;106146;1274;97992;-64
2022/07/27 01:15:45;;;;;;;31.10;20.20;;;;;;;16.70;67.82;98706.84;106091;1274;111366;-63
2022/07/27 01:18:36;;;;;;;31.30;20.50;;;;;;;16.70;67.71;98707.73;106064;1273;97959;-63
2022/07/27 01:21:07;;;;;;;30.50;18.70;;;;;;;16.65;67.77;98707.44;106065;1274;109259;-65
2022/07/27 01:23:36;;;;;;;32.00;19.00;;;;;;;16.63;67.92;98704.02;105981;1274;97870;-64
2022/07/27 01:26:06;;;;;;;33.60;19.70;;;;;;;16.63;67.70;98703.77;106132;1274;97962;-63
2022/07/27 01:28:35;;;;;;;31.80;19.50;;;;;;;16.60;67.84;98705.80;106082;1274;111937;-64
2022/07/27 01:31:04;;;;;;;32.10;19.10;;;;;;;16.60;67.99;98701.77;106102;1274;96396;-65
2022/07/27 01:33:32;;;;;;;31.80;20.50;;;;;;;16.59;68.07;98695.78;106049;1274;108197;-64
2022/07/27 01:36:00;;;;;;;29.20;18.70;;;;;;;16.60;68.06;98698.95;106130;1274;98027;-64
2022/07/27 01:38:28;;;;;;;31.50;20.60;;;;;;;16.62;68.20;98694.90;106131;1274;98670;-64
2022/07/27 01:40:56;;;;;;;34.60;20.70;;;;;;;16.62;68.12;98696.07;106083;1274;112730;-64
2022/07/27 01:43:24;;;;;;;32.10;20.60;;;;;;;16.65;68.17;98696.36;106082;1274;95195;-65
2022/07/27 01:45:52;;;;;;;31.80;19.30;;;;;;;16.65;68.21;98692.77;106044;1274;107433;-64
2022/07/27 01:48:22;;;;;;;31.50;20.20;;;;;;;16.65;68.31;98693.88;106061;1274;95259;-64
2022/07/27 01:50:52;;;;;;;33.50;20.00;;;;;;;16.63;68.22;98692.63;106075;1274;96572;-63
2022/07/27 01:53:22;;;;;;;28.70;18.60;;;;;;;16.61;68.33;98686.05;106131;1274;111064;-64
2022/07/27 01:55:51;;;;;;;31.80;19.30;;;;;;;16.61;68.30;98689.07;106087;1274;97880;-64
2022/07/27 01:58:22;;;;;;;33.40;18.00;;;;;;;16.61;68.39;98683.72;106150;1274;108388;-64
2022/07/27 02:00:50;;;;;;;33.00;18.70;;;;;;;16.60;68.29;98691.62;106083;1274;97125;-63
2022/07/27 02:03:19;;;;;;;31.70;21.20;;;;;;;16.59;68.32;98689.80;106118;1274;97862;-64
2022/07/27 02:05:46;;;;;;;33.10;20.50;;;;;;;16.56;68.33;98690.66;106183;1274;112041;-65
2022/07/27 02:08:15;;;;;;;32.00;21.50;;;;;;;16.56;68.36;98691.91;106135;1274;97863;-66
2022/07/27 02:13:34;;;;;;;31.40;19.90;;;;;;;16.56;68.48;98692.27;105886;1273;95523;-64
2022/07/27 02:16:03;;;;;;;29.10;18.90;;;;;;;16.57;68.47;98693.92;106114;1274;97992;-63
2022/07/27 02:18:44;;;;;;;34.60;21.80;;;;;;;16.57;68.61;98692.85;106092;1274;112070;-64
2022/07/27 02:21:15;;;;;;;33.20;21.10;;;;;;;16.58;68.61;98689.93;106120;1274;97910;-64
2022/07/27 02:23:47;;;;;;;33.30;21.90;;;;;;;16.58;68.60;98691.91;106175;1274;108205;-63
2022/07/27 02:26:14;;;;;;;31.90;21.00;;;;;;;16.58;68.63;98690.11;106067;1274;98529;-61
2022/07/27 02:28:43;;;;;;;32.80;21.20;;;;;;;16.59;68.57;98691.58;106077;1274;97859;-64
2022/07/27 02:31:12;;;;;;;32.70;20.50;;;;;;;16.58;68.61;98686.67;106032;1274;112048;-64
2022/07/27 02:33:40;;;;;;;31.60;20.70;;;;;;;16.58;68.56;98688.46;106680;1274;95931;-65
2022/07/27 02:36:09;;;;;;;33.10;21.50;;;;;;;16.57;68.59;98686.64;106092;1273;108313;-64
2022/07/27 02:38:37;;;;;;;34.30;20.90;;;;;;;16.56;68.87;98690.63;106017;1274;97819;-64
2022/07/27 02:41:05;;;;;;;32.30;21.10;;;;;;;16.57;68.73;98693.05;106047;1274;97885;-63
2022/07/27 02:43:34;;;;;;;33.80;20.80;;;;;;;16.56;68.69;98691.77;106105;1274;110366;-64
2022/07/27 02:46:04;;;;;;;36.30;21.40;;;;;;;16.53;68.76;98689.36;106127;1274;97260;-64
2022/07/27 02:48:32;;;;;;;37.20;21.90;;;;;;;16.51;68.77;98693.48;106119;1274;107645;-64
2022/07/27 02:51:01;;;;;;;35.90;22.70;;;;;;;16.48;68.87;98693.28;106170;1274;97872;-64
2022/07/27 02:53:30;;;;;;;31.20;20.20;;;;;;;16.47;68.83;98694.08;106208;1274;95371;-64
2022/07/27 02:55:59;;;;;;;38.80;23.30;;;;;;;16.46;68.86;98698.13;106056;1274;111946;-64
2022/07/27 02:58:28;;;;;;;41.70;21.90;;;;;;;16.47;68.98;98701.23;106099;1273;97883;-64
2022/07/27 03:00:57;;;;;;;33.20;21.20;;;;;;;16.49;69.01;98703.19;106072;1274;108417;-64
2022/07/27 03:03:27;;;;;;;38.60;22.00;;;;;;;16.50;69.05;98705.03;106070;1274;97965;-64
2022/07/27 03:06:06;;;;;;;35.20;21.60;;;;;;;16.48;68.99;98707.78;106174;1274;95247;-65
2022/07/27 03:08:35;;;;;;;34.50;22.60;;;;;;;16.46;68.97;98709.75;105996;1274;111998;-64
2022/07/27 03:11:04;;;;;;;35.50;20.90;;;;;;;16.45;68.87;98710.73;106019;1274;97848;-63
2022/07/27 03:13:34;;;;;;;31.30;21.40;;;;;;;16.43;69.06;98707.27;106060;1274;108905;-64
2022/07/27 03:16:02;;;;;;;37.30;21.60;;;;;;;16.40;69.07;98710.00;106082;1274;97897;-63
2022/07/27 03:18:31;;;;;;;32.70;21.40;;;;;;;16.41;69.09;98714.80;106093;1274;97879;-65
2022/07/27 03:20:59;;;;;;;29.50;19.20;;;;;;;16.40;69.18;98714.84;106078;1274;111880;-64
2022/07/27 03:23:26;;;;;;;36.00;21.30;;;;;;;16.40;69.20;98715.20;106071;1274;95292;-64
2022/07/27 03:25:54;;;;;;;35.10;21.80;;;;;;;16.41;69.18;98718.19;106027;1274;106818;-66
2022/07/27 03:28:23;;;;;;;35.20;21.30;;;;;;;16.42;69.13;98718.58;106064;1274;97859;-64
2022/07/27 03:30:52;;;;;;;33.80;21.00;;;;;;;16.43;69.15;98720.79;106120;1274;97854;-63
2022/07/27 03:33:21;;;;;;;33.60;20.90;;;;;;;16.43;69.13;98719.19;106128;1273;112205;-67
2022/07/27 03:35:51;;;;;;;29.30;19.50;;;;;;;16.43;69.18;98722.77;106052;1274;95700;-63
2022/07/27 03:38:19;;;;;;;26.20;16.70;;;;;;;16.41;69.16;98724.06;106091;1274;108451;-63
2022/07/27 03:40:46;;;;;;;30.10;19.50;;;;;;;16.40;69.16;98727.41;106140;1274;97901;-64
2022/07/27 03:43:15;;;;;;;28.40;17.70;;;;;;;16.39;69.37;98736.39;106204;1274;97921;-65
2022/07/27 03:45:44;;;;;;;28.40;17.60;;;;;;;16.40;69.20;98737.95;106178;1274;111466;-65
2022/07/27 03:48:13;;;;;;;30.70;18.90;;;;;;;16.38;69.20;98735.39;105146;1274;1237342;-64
2022/07/27 03:50:41;;;;;;;28.70;16.80;;;;;;;16.37;69.11;98733.23;106016;1274;108378;-64
2022/07/27 03:53:09;;;;;;;28.00;17.20;;;;;;;16.36;69.21;98728.80;106115;1274;95266;-63
2022/07/27 03:55:38;;;;;;;31.90;19.00;;;;;;;16.37;69.43;98726.23;106177;1274;97465;-64
2022/07/27 03:58:07;;;;;;;30.20;17.80;;;;;;;16.40;69.39;98729.00;106119;1273;111299;-64
2022/07/27 04:00:35;;;;;;;30.20;18.40;;;;;;;16.42;69.50;98730.41;106154;1274;97966;-63
2022/07/27 04:03:05;;;;;;;31.70;18.40;;;;;;;16.44;69.39;98730.58;106179;1274;107717;-64
2022/07/27 04:05:33;;;;;;;31.10;17.80;;;;;;;16.44;69.30;98735.52;106005;1274;97951;-64
2022/07/27 04:08:01;;;;;;;27.40;16.40;;;;;;;16.44;69.27;98737.73;106005;1274;96406;-65
2022/07/27 04:10:29;;;;;;;31.40;16.20;;;;;;;16.43;69.26;98738.64;106036;1274;111762;-65
2022/07/27 04:12:59;;;;;;;30.40;17.20;;;;;;;16.44;69.33;98736.30;105976;1274;96566;-66
2022/07/27 04:15:29;;;;;;;30.10;16.00;;;;;;;16.45;69.53;98735.27;106029;1274;109174;-66
2022/07/27 04:17:57;;;;;;;29.20;17.10;;;;;;;16.47;69.53;98735.23;106041;1274;97853;-66
2022/07/27 04:20:26;;;;;;;29.90;16.60;;;;;;;16.50;69.50;98735.48;106115;1274;96544;-73
2022/07/27 04:22:55;;;;;;;29.20;15.80;;;;;;;16.52;69.44;98736.52;106014;1274;112083;-67
2022/07/27 04:25:23;;;;;;;26.70;15.20;;;;;;;16.57;69.64;98742.85;106253;1274;98559;-70
2022/07/27 04:27:53;;;;;;;29.40;15.70;;;;;;;16.62;69.41;98744.64;106128;1274;105589;-70
2022/07/27 04:30:22;;;;;;;25.30;15.30;;;;;;;16.68;69.55;98747.46;106126;1274;97877;-69
2022/07/27 04:32:51;;;;;;;28.40;16.30;;;;;;;16.73;69.45;98752.66;105872;1274;97807;-69
2022/07/27 04:35:20;;;;;;;30.70;16.80;;;;;;;16.79;69.45;98755.00;107463;1272;111345;-71
2022/07/27 04:37:54;;;;;;;24.40;14.10;;;;;;;16.85;69.48;98757.36;105943;1274;96586;-69
2022/07/27 04:40:35;;;;;;;27.60;15.60;;;;;;;16.88;69.53;98756.27;106070;1274;108363;-67
2022/07/27 04:43:05;;;;;;;25.50;15.00;;;;;;;16.91;69.36;98755.77;106107;1274;97924;-69
2022/07/27 04:45:35;;;;;;;26.10;15.80;;;;;;;16.94;69.47;98761.70;106094;1274;97920;-72
2022/07/27 04:48:09;;;;;;;28.50;16.40;;;;;;;16.98;69.56;98761.80;106130;1274;111436;-73
2022/07/27 04:50:40;;;;;;;;;;;;;;;17.00;69.62;98762.30;106127;1274;97953;-72
2022/07/27 04:53:10;;;;;;;26.80;14.40;;;;;;;17.00;69.62;98762.64;106135;1274;107555;-68
2022/07/27 04:55:46;;;;;;;27.50;16.00;;;;;;;17.01;69.48;98766.96;106176;1274;97942;-68
2022/07/27 04:58:15;;;;;;;33.70;18.30;;;;;;;17.03;69.64;98769.66;106141;1274;95204;-67
2022/07/27 05:00:44;;;;;;;29.20;18.10;;;;;;;17.04;69.62;98769.70;106135;1275;111368;-67
2022/07/27 05:03:13;;;;;;;31.90;17.70;;;;;;;17.06;69.43;98769.65;106149;1274;97997;-65
2022/07/27 05:05:41;;;;;;;31.10;17.40;;;;;;;17.08;69.38;98770.77;106094;1274;107489;-68
2022/07/27 05:08:17;;;;;;;27.80;17.20;;;;;;;17.11;69.56;98770.07;106109;1274;97880;-67
2022/07/27 05:10:47;;;;;;;29.20;17.10;;;;;;;17.16;69.52;98770.08;106117;1274;97926;-68
2022/07/27 05:13:15;;;;;;;27.90;16.50;;;;;;;17.22;69.64;98766.79;106083;1274;112126;-69
2022/07/27 05:15:44;;;;;;;31.50;17.20;;;;;;;17.25;69.46;98769.80;106195;1274;98790;-66
2022/07/27 05:18:24;;;;;;;28.40;17.80;;;;;;;17.30;69.56;98769.84;106081;1274;108321;-69
2022/07/27 05:20:52;;;;;;;30.50;17.50;;;;;;;17.35;69.53;98775.30;106134;1274;97917;-70
2022/07/27 05:23:21;;;;;;;30.40;18.60;;;;;;;17.36;69.55;98774.56;106131;1274;97969;-66
2022/07/27 05:25:51;;;;;;;30.10;18.00;;;;;;;17.39;69.71;98779.81;106062;1274;110900;-69
2022/07/27 05:28:20;;;;;;;28.70;18.20;;;;;;;17.43;69.51;98784.83;105973;1275;97953;-69
2022/07/27 05:30:48;;;;;;;28.30;19.40;;;;;;;17.47;69.51;98786.54;106016;1276;108355;-68
2022/07/27 05:33:16;;;;;;;33.40;21.50;;;;;;;17.50;69.69;98778.34;106105;1274;98050;-68
2022/07/27 05:35:44;;;;;;;31.10;21.20;;;;;;;17.51;69.65;98774.45;106156;1274;97904;-68
2022/07/27 05:38:13;;;;;;;33.30;20.80;;;;;;;17.53;69.42;98778.62;106080;1274;112026;-70
2022/07/27 05:40:45;;;;;;;33.00;20.40;;;;;;;17.52;69.61;98785.34;106103;1274;97882;-68
2022/07/27 05:43:14;;;;;;;33.30;22.50;;;;;;;17.56;69.61;98787.00;106006;1274;108469;-68
2022/07/27 05:45:42;;;;;;;29.70;20.40;;;;;;;17.61;69.71;98784.86;105977;1274;97015;-67
2022/07/27 05:48:11;;;;;;;33.70;22.50;;;;;;;17.65;69.65;98788.27;106007;1275;95270;-68
2022/07/27 05:50:41;;;;;;;32.70;21.30;;;;;;;17.67;69.81;98789.48;106064;1274;114150;-66
2022/07/27 05:53:09;;;;;;;31.00;20.50;;;;;;;17.66;69.63;98794.92;105991;1276;95175;-69
2022/07/27 05:55:38;;;;;;;31.00;20.40;;;;;;;17.67;69.58;98798.23;106038;1275;108438;-71
2022/07/27 05:58:29;;;;;;;37.20;20.90;;;;;;;17.68;69.68;98801.75;106020;1276;97849;-69
2022/07/27 06:01:00;;;;;;;32.00;21.80;;;;;;;17.68;69.68;98807.23;106050;1275;97777;-71
2022/07/27 06:03:30;;;;;;;34.50;23.00;;;;;;;17.70;69.70;98811.52;105960;1274;112122;-71
2022/07/27 06:08:47;;;;;;;36.40;21.60;;;;;;;17.74;69.67;98818.88;105958;1275;108656;-68
2022/07/27 06:11:14;;;;;;;37.50;23.80;;;;;;;17.74;69.53;98817.56;105995;1275;97885;-69
2022/07/27 06:13:42;;;;;;;35.50;23.80;;;;;;;17.74;69.65;98815.98;106000;1275;95381;-68
2022/07/27 06:16:12;;;;;;;35.80;23.00;;;;;;;17.74;69.64;98815.57;106034;1276;111970;-68
2022/07/27 06:18:41;;;;;;;39.70;25.50;;;;;;;17.75;69.62;98812.79;106137;1275;97986;-71
2022/07/27 06:21:09;;;;;;;34.30;25.10;;;;;;;17.75;69.70;98812.86;106096;1274;107415;-71
2022/07/27 06:23:39;;;;;;;33.10;22.60;;;;;;;17.71;69.47;98810.17;106045;1274;95385;-70
2022/07/27 06:26:08;;;;;;;36.20;22.80;;;;;;;17.69;69.70;98808.83;106152;1274;97858;-69
2022/07/27 06:28:37;;;;;;;33.00;22.20;;;;;;;17.71;70.02;98807.35;106039;1274;112037;-69
2022/07/27 06:31:06;;;;;;;35.40;23.60;;;;;;;17.76;69.84;98810.44;106008;1277;97005;-69
2022/07/27 06:33:35;;;;;;;36.30;23.70;;;;;;;17.79;69.78;98811.66;105973;1275;107713;-70
2022/07/27 06:36:07;;;;;;;39.20;24.70;;;;;;;17.84;69.87;98818.63;106058;1274;97985;-68
2022/07/27 06:38:35;;;;;;;35.70;24.20;;;;;;;17.88;69.85;98817.33;106099;1274;97846;-70
2022/07/27 06:41:04;;;;;;;39.20;24.40;;;;;;;17.92;69.83;98812.23;106026;1274;111599;-71
2022/07/27 06:43:32;;;;;;;39.20;24.70;;;;;;;17.94;69.76;98816.20;106035;1274;96523;-69
2022/07/27 06:45:59;;;;;;;38.50;24.90;;;;;;;17.93;69.78;98814.98;105987;1277;108316;-68
2022/07/27 06:48:28;;;;;;;38.00;25.20;;;;;;;17.94;69.68;98819.95;106127;1274;98062;-67
2022/07/27 06:50:59;;;;;;;40.00;26.30;;;;;;;17.94;69.94;98824.04;106128;1274;97869;-67
2022/07/27 06:53:28;;;;;;;42.30;27.30;;;;;;;17.96;69.65;98820.61;106112;1274;111381;-73
2022/07/27 06:56:07;;;;;;;39.60;25.30;;;;;;;17.97;69.74;98826.50;106176;1274;95367;-68
2022/07/27 06:58:37;;;;;;;39.50;25.50;;;;;;;17.99;69.66;98827.37;106103;1274;108426;-69
2022/07/27 07:01:06;;;;;;;40.20;26.00;;;;;;;17.99;69.82;98823.19;106001;1274;97895;-66
2022/07/27 07:03:38;;;;;;;40.70;24.90;;;;;;;18.01;69.71;98831.96;106061;1275;98068;-67
2022/07/27 07:06:07;;;;;;;41.00;26.10;;;;;;;18.03;69.58;98829.46;106143;1274;112240;-66
2022/07/27 07:08:35;;;;;;;39.80;25.60;;;;;;;18.01;69.64;98830.33;106196;1274;97942;-67
2022/07/27 07:11:04;;;;;;;39.00;24.70;;;;;;;17.98;69.66;98833.31;105999;1274;108383;-67
2022/07/27 07:13:32;;;;;;;41.30;26.10;;;;;;;17.93;69.53;98836.98;106097;1274;96180;-67
2022/07/27 07:16:06;;;;;;;38.90;24.80;;;;;;;17.91;69.57;98834.29;106124;1274;97480;-67
2022/07/27 07:18:35;;;;;;;40.80;26.60;;;;;;;17.94;69.87;98834.27;106005;1274;112040;-68
2022/07/27 07:21:03;;;;;;;39.70;24.90;;;;;;;17.96;69.83;98829.22;106086;1274;97643;-67
2022/07/27 07:23:31;;;;;;;40.60;25.30;;;;;;;17.95;69.73;98837.04;106114;1274;108704;-68
2022/07/27 07:25:59;;;;;;;42.10;26.90;;;;;;;17.92;69.73;98837.69;106113;1277;98010;-68
2022/07/27 07:28:28;;;;;;;40.10;25.60;;;;;;;17.94;69.97;98839.70;106055;1274;97756;-70
2022/07/27 07:30:58;;;;;;;41.00;25.80;;;;;;;17.98;69.89;98842.09;106052;1274;110500;-67
2022/07/27 07:33:27;;;;;;;41.00;25.90;;;;;;;18.01;69.87;98843.25;106031;1275;97863;-68
2022/07/27 07:35:56;;;;;;;42.30;27.30;;;;;;;18.00;69.64;98844.23;106029;1277;108731;-67
2022/07/27 07:38:43;;;;;;;43.60;28.00;;;;;;;18.00;69.65;98842.68;106096;1274;97931;-67
2022/07/27 07:41:12;;;;;;;43.80;27.40;;;;;;;17.94;69.70;98842.36;106113;1275;97950;-67
2022/07/27 07:43:42;;;;;;;45.10;28.40;;;;;;;17.92;69.55;98842.94;106038;1275;111937;-65
2022/07/27 07:46:11;;;;;;;45.30;29.70;;;;;;;17.91;69.76;98843.38;106058;1276;98078;-69
2022/07/27 07:48:42;;;;;;;40.60;27.90;;;;;;;17.93;69.67;98844.61;106163;1274;107243;-68
2022/07/27 07:51:12;;;;;;;45.00;28.50;;;;;;;17.96;69.70;98847.59;106022;1277;97825;-70
2022/07/27 07:53:41;;;;;;;45.30;28.30;;;;;;;17.98;69.91;98847.27;106091;1274;97761;-67
2022/07/27 07:56:10;;;;;;;45.70;30.60;;;;;;;18.00;69.79;98845.52;106115;1274;111368;-67
2022/07/27 07:58:40;;;;;;;47.30;30.10;;;;;;;18.00;69.48;98848.36;106113;1274;97952;-64
2022/07/27 08:01:11;;;;;;;47.50;30.30;;;;;;;18.00;69.79;98854.09;106096;1274;108619;-64
2022/07/27 08:03:40;;;;;;;46.60;29.70;;;;;;;18.03;69.91;98862.43;105990;1277;95344;-69
2022/07/27 08:06:13;;;;;;;42.20;27.10;;;;;;;18.02;69.66;98866.84;106005;1274;95305;-64
2022/07/27 08:08:42;;;;;;;43.40;27.20;;;;;;;18.04;69.80;98872.80;106084;1274;111687;-67
2022/07/27 08:11:11;;;;;;;39.60;27.20;;;;;;;18.08;69.66;98876.98;106102;1274;97876;-63
2022/07/27 08:13:40;;;;;;;42.70;26.00;;;;;;;18.13;69.66;98883.11;106148;1274;108902;-67
2022/07/27 08:16:08;;;;;;;40.20;25.20;;;;;;;18.14;69.75;98888.32;106149;1274;97957;-65
2022/07/27 08:18:37;;;;;;;41.00;26.90;;;;;;;18.17;69.81;98892.86;106133;1274;97963;-66
2022/07/27 08:21:07;;;;;;;41.30;27.60;;;;;;;18.21;69.78;98896.95;106120;1274;111945;-67
2022/07/27 08:23:36;;;;;;;47.00;28.70;;;;;;;18.24;69.89;98900.34;106033;1277;97918;-67
2022/07/27 08:26:05;;;;;;;44.50;28.90;;;;;;;18.29;69.87;98904.30;106025;1277;107810;-66
2022/07/27 08:28:35;;;;;;;43.10;28.20;;;;;;;18.34;69.75;98909.27;106017;1277;97958;-67
2022/07/27 08:31:05;;;;;;;43.00;26.20;;;;;;;18.35;69.73;98908.21;106123;1274;97956;-68
2022/07/27 08:33:42;;;;;;;38.20;26.40;;;;;;;18.36;69.58;98909.86;106091;1274;112003;-69
2022/07/27 08:36:11;;;;;;;43.60;27.90;;;;;;;18.37;69.53;98907.81;106119;1274;97906;-65
2022/07/27 08:38:40;;;;;;;40.70;26.80;;;;;;;18.34;69.49;98911.02;105959;1274;109138;-68
2022/07/27 08:41:12;;;;;;;39.40;25.90;;;;;;;18.34;69.65;98914.48;105939;1274;97844;-66
2022/07/27 08:43:44;;;;;;;38.00;27.00;;;;;;;18.34;69.53;98917.98;106035;1274;96373;-66
2022/07/27 08:46:16;;;;;;;40.00;26.90;;;;;;;18.35;69.73;98920.23;106730;1274;111001;-67
2022/07/27 08:48:45;;;;;;;40.50;27.00;;;;;;;18.36;69.60;98921.34;106312;1274;97921;-67
2022/07/27 08:51:15;;;;;;;41.40;26.40;;;;;;;18.37;69.78;98925.21;106075;1273;108906;-66
2022/07/27 08:53:43;;;;;;;35.60;24.50;;;;;;;18.41;69.76;98926.38;105946;1274;98592;-67
2022/07/27 08:56:22;;;;;;;36.90;25.00;;;;;;;18.45;69.71;98928.30;106098;1274;97722;-66
2022/07/27 08:58:52;;;;;;;39.30;25.50;;;;;;;18.47;69.55;98927.26;106118;1274;111787;-66
2022/07/27 09:01:21;;;;;;;36.60;25.70;;;;;;;18.47;69.69;98928.77;106089;1274;97879;-67
2022/07/27 09:03:51;;;;;;;37.20;24.70;;;;;;;18.50;69.75;98928.74;106102;1274;108274;-66
2022/07/27 09:06:49;;;;;;;34.30;24.60;;;;;;;18.52;69.72;98929.16;106125;1274;97893;-67
2022/07/27 09:09:21;;;;;;;37.90;25.40;;;;;;;18.59;69.67;98934.14;105994;1274;95347;-68
2022/07/27 09:12:09;;;;;;;36.80;25.80;;;;;;;18.63;69.78;98936.23;106073;1274;112041;-68
2022/07/27 09:14:41;;;;;;;38.10;26.50;;;;;;;18.64;69.78;98934.01;106092;1274;97851;-67
2022/07/27 09:17:26;;;;;;;40.30;26.40;;;;;;;18.71;69.91;98933.27;106102;1274;107712;-67
2022/07/27 09:20:19;;;;;;;36.00;25.20;;;;;;;18.80;69.83;98933.71;106000;1274;97863;-65
2022/07/27 09:22:55;;;;;;;35.00;22.50;;;;;;;18.87;69.78;98932.26;106087;1274;97880;-69
2022/07/27 09:25:32;;;;;;;36.80;24.50;;;;;;;18.93;69.71;98936.08;106126;1274;109565;-68
2022/07/27 09:28:29;;;;;;;35.90;22.50;;;;;;;19.04;69.91;98936.70;106084;1274;97961;-67
2022/07/27 09:31:06;;;;;;;29.50;20.80;;;;;;;19.13;69.63;98938.08;106129;1274;107803;-65
2022/07/27 09:33:43;;;;;;;29.40;19.80;;;;;;;19.17;69.54;98928.19;106121;1274;97848;-66
2022/07/27 09:36:13;;;;;;;32.80;21.00;;;;;;;19.29;69.63;98927.98;106067;1274;96986;-65
2022/07/27 09:38:50;;;;;;;27.50;20.20;;;;;;;19.68;69.54;98923.52;106036;1274;111479;-65
2022/07/27 09:41:25;;;;;;;28.40;18.20;;;;;;;20.14;69.41;98922.81;105991;1275;98053;-66
2022/07/27 09:43:55;;;;;;;26.00;15.80;;;;;;;20.96;69.24;98917.92;106147;1274;108395;-65
2022/07/27 09:46:47;;;;;;;25.10;14.10;;;;;;;21.97;69.12;98914.60;106105;1274;97979;-66
2022/07/27 09:49:30;;;;;;;25.10;13.40;;;;;;;22.79;69.00;98916.20;106165;1274;97873;-65
2022/07/27 09:52:02;;;;;;;22.10;12.10;;;;;;;23.33;68.85;98907.08;106147;1274;112050;-65
2022/07/27 09:54:45;;;;;;;28.20;13.30;;;;;;;24.04;68.66;98899.09;106056;1274;97908;-66
2022/07/27 09:57:14;;;;;;;20.20;11.60;;;;;;;24.40;68.44;98904.07;106125;1274;107721;-68
2022/07/27 09:59:45;;;;;;;22.70;11.50;;;;;;;24.35;68.40;98907.56;106142;1274;97866;-66
2022/07/27 10:02:15;;;;;;;21.10;11.20;;;;;;;24.53;68.41;98905.55;106017;1275;97852;-67
2022/07/27 10:04:45;;;;;;;20.80;11.40;;;;;;;24.73;68.38;98905.37;106123;1274;111443;-66
2022/07/27 10:07:18;;;;;;;29.00;11.10;;;;;;;25.20;68.29;98903.33;106152;1274;97876;-68
2022/07/27 10:09:47;;;;;;;19.30;10.00;;;;;;;25.35;68.08;98900.41;106028;1275;107773;-67
2022/07/27 10:12:15;;;;;;;17.80;9.70;;;;;;;25.33;67.91;98903.19;106026;1274;97877;-67
2022/07/27 10:14:45;;;;;;;18.30;9.70;;;;;;;25.38;67.95;98907.53;106122;1274;95251;-68
2022/07/27 10:17:14;;;;;;;16.90;8.50;;;;;;;25.37;67.40;98903.14;106151;1274;111345;-67
2022/07/27 10:19:46;;;;;;;15.90;8.40;;;;;;;25.23;67.36;98903.09;106168;1274;98197;-67
2022/07/27 10:22:16;;;;;;;15.70;8.50;;;;;;;25.20;67.33;98902.12;106140;1274;107681;-68
2022/07/27 10:24:57;;;;;;;16.70;7.90;;;;;;;25.22;67.11;98898.65;106059;1275;97983;-67
2022/07/27 10:27:27;;;;;;;16.60;8.60;;;;;;;25.09;66.82;98897.52;106118;1274;97976;-67
2022/07/27 10:29:58;;;;;;;18.10;8.00;;;;;;;24.97;66.50;98895.98;106031;1274;111489;-69
2022/07/27 10:32:33;;;;;;;17.20;7.70;;;;;;;24.97;66.58;98889.58;106015;1274;95207;-68
2022/07/27 10:35:02;;;;;;;13.80;7.50;;;;;;;25.05;66.47;98888.61;105941;1274;109261;-69
2022/07/27 10:37:33;;;;;;;18.40;7.70;;;;;;;25.14;66.27;98892.08;106013;1274;97880;-67
2022/07/27 10:40:53;;;;;;;16.50;7.80;;;;;;;25.15;65.98;98887.80;106055;1274;95227;-65
2022/07/27 10:43:19;;;;;;;14.80;7.10;;;;;;;25.13;65.68;98883.16;105961;1274;112034;-68
2022/07/27 10:45:50;;;;;;;19.30;7.30;;;;;;;25.11;65.46;98885.29;106216;1274;98494;-66
2022/07/27 10:48:39;;;;;;;19.60;7.30;;;;;;;25.11;65.24;98888.48;106185;1274;108234;-67
2022/07/27 10:51:34;;;;;;;17.50;7.40;;;;;;;25.04;64.94;98890.55;106149;1274;97877;-65
2022/07/27 10:54:21;;;;;;;18.00;6.90;;;;;;;24.93;64.64;98890.80;105990;1274;97880;-67
2022/07/27 10:56:53;;;;;;;18.90;7.10;;;;;;;24.81;64.67;98885.40;106155;1274;111455;-72
2022/07/27 10:59:39;;;;;;;17.00;6.60;;;;;;;24.62;64.33;98880.41;106167;1277;96079;-69
2022/07/27 11:02:41;;;;;;;18.30;7.60;;;;;;;24.44;64.09;98881.70;106170;1274;107557;-69
2022/07/27 11:05:11;;;;;;;17.30;6.50;;;;;;;24.39;63.98;98879.14;106169;1274;99410;-70
2022/07/27 11:08:01;;;;;;;18.60;6.60;;;;;;;24.41;63.99;98878.14;106165;1274;97950;-70
2022/07/27 11:10:50;;;;;;;18.00;7.20;;;;;;;24.40;63.72;98876.13;106170;1274;111415;-72
2022/07/27 11:13:21;;;;;;;23.00;6.80;;;;;;;24.40;63.61;98872.16;106119;1273;95372;-67
2022/07/27 11:16:01;;;;;;;17.40;7.00;;;;;;;24.38;63.39;98874.66;106080;1274;107680;-66
2022/07/27 11:19:06;;;;;;;19.60;7.20;;;;;;;24.44;63.41;98878.07;106037;1274;95313;-66
2022/07/27 11:21:36;;;;;;;12.50;5.00;;;;;;;24.56;63.10;98871.67;106002;1274;97943;-68
2022/07/27 11:24:19;;;;;;;15.90;5.60;;;;;;;24.63;62.87;98880.64;106002;1274;111916;-65
2022/07/27 11:26:51;;;;;;;15.70;5.40;;;;;;;24.59;62.67;98875.06;106159;1274;95427;-65
2022/07/27 11:29:23;;;;;;;13.30;4.90;;;;;;;24.53;62.40;98872.14;106140;1274;108141;-67
2022/07/27 11:31:56;;;;;;;18.60;6.30;;;;;;;24.54;62.38;98866.61;106089;1275;95808;-65